sensor_id;sensor_type;location;lat;lon;timestamp;P1;durP1;ratioP1;P2;durP2;ratioP2
50309;SDS011;36207;51.850;21.698;2024-03-25T00:00:10;24.20;;;13.60;;
50309;SDS011;36207;51.850;21.698;2024-03-25T00:02:56;22.10;;;14.10;;
50309;SDS011;36207;51.850;21.698;2024-03-25T00:05:22;21.90;;;13.50;;
50309;SDS011;36207;51.850;21.698;2024-03-25T00:07:51;21.80;;;13.40;;
50309;SDS011;36207;51.850;21.698;2024-03-25T00:10:17;24.10;;;14.50;;
50309;SDS011;36207;51.850;21.698;2024-03-25T00:12:48;28.70;;;15.00;;
50309;SDS011;36207;51.850;21.698;2024-03-25T00:15:18;25.70;;;14.70;;
50309;SDS011;36207;51.850;21.698;2024-03-25T00:17:45;21.90;;;12.90;;
50309;SDS011;36207;51.850;21.698;2024-03-25T00:20:15;22.90;;;13.30;;
50309;SDS011;36207;51.850;21.698;2024-03-25T00:22:41;23.10;;;12.60;;
50309;SDS011;36207;51.850;21.698;2024-03-25T00:25:07;23.40;;;13.00;;
50309;SDS011;36207;51.850;21.698;2024-03-25T00:27:34;23.60;;;12.50;;
50309;SDS011;36207;51.850;21.698;2024-03-25T00:30:00;24.20;;;13.20;;
50309;SDS011;36207;51.850;21.698;2024-03-25T00:32:26;24.10;;;13.40;;
50309;SDS011;36207;51.850;21.698;2024-03-25T00:34:52;24.70;;;13.60;;
50309;SDS011;36207;51.850;21.698;2024-03-25T00:37:18;21.10;;;12.60;;
50309;SDS011;36207;51.850;21.698;2024-03-25T00:39:44;22.10;;;13.50;;
50309;SDS011;36207;51.850;21.698;2024-03-25T00:42:10;23.50;;;14.10;;
50309;SDS011;36207;51.850;21.698;2024-03-25T00:44:37;23.60;;;14.30;;
50309;SDS011;36207;51.850;21.698;2024-03-25T00:47:03;25.40;;;14.10;;
50309;SDS011;36207;51.850;21.698;2024-03-25T00:49:29;27.90;;;15.30;;
50309;SDS011;36207;51.850;21.698;2024-03-25T00:51:55;26.20;;;14.50;;
50309;SDS011;36207;51.850;21.698;2024-03-25T00:54:21;25.20;;;13.40;;
50309;SDS011;36207;51.850;21.698;2024-03-25T00:56:49;21.60;;;12.90;;
50309;SDS011;36207;51.850;21.698;2024-03-25T00:59:17;23.20;;;13.60;;
50309;SDS011;36207;51.850;21.698;2024-03-25T01:01:43;22.30;;;12.90;;
50309;SDS011;36207;51.850;21.698;2024-03-25T01:04:09;21.70;;;12.90;;
50309;SDS011;36207;51.850;21.698;2024-03-25T01:06:35;22.20;;;12.50;;
50309;SDS011;36207;51.850;21.698;2024-03-25T01:09:01;23.70;;;13.10;;
50309;SDS011;36207;51.850;21.698;2024-03-25T01:11:27;21.70;;;13.10;;
50309;SDS011;36207;51.850;21.698;2024-03-25T01:13:53;23.00;;;13.30;;
50309;SDS011;36207;51.850;21.698;2024-03-25T01:16:19;25.00;;;13.10;;
50309;SDS011;36207;51.850;21.698;2024-03-25T01:18:44;22.70;;;13.20;;
50309;SDS011;36207;51.850;21.698;2024-03-25T01:21:10;21.90;;;13.40;;
50309;SDS011;36207;51.850;21.698;2024-03-25T01:23:36;24.80;;;14.10;;
50309;SDS011;36207;51.850;21.698;2024-03-25T01:26:02;23.30;;;14.60;;
50309;SDS011;36207;51.850;21.698;2024-03-25T01:28:28;24.50;;;13.50;;
50309;SDS011;36207;51.850;21.698;2024-03-25T01:30:54;26.90;;;14.70;;
50309;SDS011;36207;51.850;21.698;2024-03-25T01:33:20;24.40;;;14.50;;
50309;SDS011;36207;51.850;21.698;2024-03-25T01:35:46;27.10;;;15.00;;
50309;SDS011;36207;51.850;21.698;2024-03-25T01:38:12;25.00;;;14.30;;
50309;SDS011;36207;51.850;21.698;2024-03-25T01:40:38;28.10;;;15.50;;
50309;SDS011;36207;51.850;21.698;2024-03-25T01:43:05;27.90;;;15.60;;
50309;SDS011;36207;51.850;21.698;2024-03-25T01:45:34;30.30;;;16.40;;
50309;SDS011;36207;51.850;21.698;2024-03-25T01:48:02;30.10;;;15.50;;
50309;SDS011;36207;51.850;21.698;2024-03-25T01:50:33;29.90;;;16.20;;
50309;SDS011;36207;51.850;21.698;2024-03-25T01:53:02;25.10;;;14.60;;
50309;SDS011;36207;51.850;21.698;2024-03-25T01:55:29;26.10;;;14.40;;
50309;SDS011;36207;51.850;21.698;2024-03-25T01:57:58;24.20;;;14.40;;
50309;SDS011;36207;51.850;21.698;2024-03-25T02:00:24;23.10;;;13.70;;
50309;SDS011;36207;51.850;21.698;2024-03-25T02:02:52;23.20;;;13.30;;
50309;SDS011;36207;51.850;21.698;2024-03-25T02:05:19;23.90;;;13.80;;
50309;SDS011;36207;51.850;21.698;2024-03-25T02:07:46;23.80;;;13.70;;
50309;SDS011;36207;51.850;21.698;2024-03-25T02:10:14;22.30;;;13.10;;
50309;SDS011;36207;51.850;21.698;2024-03-25T02:12:41;23.30;;;13.20;;
50309;SDS011;36207;51.850;21.698;2024-03-25T02:15:09;23.50;;;12.90;;
50309;SDS011;36207;51.850;21.698;2024-03-25T02:17:36;22.10;;;13.00;;
50309;SDS011;36207;51.850;21.698;2024-03-25T02:20:02;22.30;;;13.10;;
50309;SDS011;36207;51.850;21.698;2024-03-25T02:22:31;22.10;;;13.30;;
50309;SDS011;36207;51.850;21.698;2024-03-25T02:24:58;23.60;;;13.80;;
50309;SDS011;36207;51.850;21.698;2024-03-25T02:27:25;21.70;;;13.60;;
50309;SDS011;36207;51.850;21.698;2024-03-25T02:29:54;24.50;;;13.50;;
50309;SDS011;36207;51.850;21.698;2024-03-25T02:32:27;23.30;;;13.50;;
50309;SDS011;36207;51.850;21.698;2024-03-25T02:34:55;23.70;;;13.90;;
50309;SDS011;36207;51.850;21.698;2024-03-25T02:37:22;24.60;;;13.90;;
50309;SDS011;36207;51.850;21.698;2024-03-25T02:39:48;23.00;;;14.00;;
50309;SDS011;36207;51.850;21.698;2024-03-25T02:42:14;24.40;;;14.20;;
50309;SDS011;36207;51.850;21.698;2024-03-25T02:44:41;23.90;;;13.30;;
50309;SDS011;36207;51.850;21.698;2024-03-25T02:47:09;25.00;;;13.60;;
50309;SDS011;36207;51.850;21.698;2024-03-25T02:49:37;24.30;;;14.70;;
50309;SDS011;36207;51.850;21.698;2024-03-25T02:52:03;26.20;;;13.90;;
50309;SDS011;36207;51.850;21.698;2024-03-25T02:54:30;23.90;;;13.90;;
50309;SDS011;36207;51.850;21.698;2024-03-25T02:56:56;24.40;;;13.70;;
50309;SDS011;36207;51.850;21.698;2024-03-25T02:59:22;26.00;;;15.10;;
50309;SDS011;36207;51.850;21.698;2024-03-25T03:01:48;25.70;;;14.50;;
50309;SDS011;36207;51.850;21.698;2024-03-25T03:04:13;24.30;;;15.10;;
50309;SDS011;36207;51.850;21.698;2024-03-25T03:06:39;25.20;;;14.80;;
50309;SDS011;36207;51.850;21.698;2024-03-25T03:09:06;25.30;;;14.50;;
50309;SDS011;36207;51.850;21.698;2024-03-25T03:11:32;25.20;;;14.50;;
50309;SDS011;36207;51.850;21.698;2024-03-25T03:13:58;27.10;;;14.60;;
50309;SDS011;36207;51.850;21.698;2024-03-25T03:16:24;24.80;;;14.60;;
50309;SDS011;36207;51.850;21.698;2024-03-25T03:18:50;26.20;;;15.20;;
50309;SDS011;36207;51.850;21.698;2024-03-25T03:21:15;25.90;;;14.30;;
50309;SDS011;36207;51.850;21.698;2024-03-25T03:23:41;25.30;;;15.00;;
50309;SDS011;36207;51.850;21.698;2024-03-25T03:26:07;24.20;;;13.30;;
50309;SDS011;36207;51.850;21.698;2024-03-25T03:28:33;26.40;;;15.10;;
50309;SDS011;36207;51.850;21.698;2024-03-25T03:31:00;25.20;;;14.80;;
50309;SDS011;36207;51.850;21.698;2024-03-25T03:33:26;26.50;;;14.70;;
50309;SDS011;36207;51.850;21.698;2024-03-25T03:35:53;24.10;;;14.50;;
50309;SDS011;36207;51.850;21.698;2024-03-25T03:38:20;25.40;;;15.00;;
50309;SDS011;36207;51.850;21.698;2024-03-25T03:40:59;25.00;;;15.00;;
50309;SDS011;36207;51.850;21.698;2024-03-25T03:43:26;26.60;;;14.90;;
50309;SDS011;36207;51.850;21.698;2024-03-25T03:45:52;26.70;;;15.10;;
50309;SDS011;36207;51.850;21.698;2024-03-25T03:48:18;25.60;;;14.50;;
50309;SDS011;36207;51.850;21.698;2024-03-25T03:50:44;27.20;;;14.90;;
50309;SDS011;36207;51.850;21.698;2024-03-25T03:53:10;24.70;;;14.40;;
50309;SDS011;36207;51.850;21.698;2024-03-25T03:55:36;26.50;;;14.60;;
50309;SDS011;36207;51.850;21.698;2024-03-25T03:58:03;25.50;;;14.70;;
50309;SDS011;36207;51.850;21.698;2024-03-25T04:00:29;24.20;;;14.40;;
50309;SDS011;36207;51.850;21.698;2024-03-25T04:02:59;27.30;;;15.10;;
50309;SDS011;36207;51.850;21.698;2024-03-25T04:05:28;27.70;;;15.60;;
50309;SDS011;36207;51.850;21.698;2024-03-25T04:07:55;26.70;;;15.20;;
50309;SDS011;36207;51.850;21.698;2024-03-25T04:10:21;25.30;;;14.50;;
50309;SDS011;36207;51.850;21.698;2024-03-25T04:12:47;28.50;;;14.70;;
50309;SDS011;36207;51.850;21.698;2024-03-25T04:15:13;23.60;;;15.30;;
50309;SDS011;36207;51.850;21.698;2024-03-25T04:17:43;25.70;;;15.30;;
50309;SDS011;36207;51.850;21.698;2024-03-25T04:20:11;25.80;;;15.10;;
50309;SDS011;36207;51.850;21.698;2024-03-25T04:22:41;25.80;;;14.90;;
50309;SDS011;36207;51.850;21.698;2024-03-25T04:25:11;24.40;;;14.00;;
50309;SDS011;36207;51.850;21.698;2024-03-25T04:27:43;27.60;;;14.60;;
50309;SDS011;36207;51.850;21.698;2024-03-25T04:30:09;26.30;;;15.00;;
50309;SDS011;36207;51.850;21.698;2024-03-25T04:32:37;25.90;;;15.40;;
50309;SDS011;36207;51.850;21.698;2024-03-25T04:35:04;27.10;;;15.40;;
50309;SDS011;36207;51.850;21.698;2024-03-25T04:37:34;27.00;;;15.30;;
50309;SDS011;36207;51.850;21.698;2024-03-25T04:40:01;25.90;;;16.80;;
50309;SDS011;36207;51.850;21.698;2024-03-25T04:42:28;30.60;;;16.80;;
50309;SDS011;36207;51.850;21.698;2024-03-25T04:44:54;26.30;;;15.60;;
50309;SDS011;36207;51.850;21.698;2024-03-25T04:47:20;25.20;;;15.30;;
50309;SDS011;36207;51.850;21.698;2024-03-25T04:49:46;25.80;;;15.10;;
50309;SDS011;36207;51.850;21.698;2024-03-25T04:52:12;29.10;;;15.70;;
50309;SDS011;36207;51.850;21.698;2024-03-25T04:54:43;25.20;;;14.80;;
50309;SDS011;36207;51.850;21.698;2024-03-25T04:57:09;24.20;;;14.80;;
50309;SDS011;36207;51.850;21.698;2024-03-25T04:59:35;25.10;;;15.20;;
50309;SDS011;36207;51.850;21.698;2024-03-25T05:02:01;30.30;;;15.20;;
50309;SDS011;36207;51.850;21.698;2024-03-25T05:04:28;26.00;;;15.30;;
50309;SDS011;36207;51.850;21.698;2024-03-25T05:06:54;28.70;;;16.30;;
50309;SDS011;36207;51.850;21.698;2024-03-25T05:09:20;25.90;;;15.10;;
50309;SDS011;36207;51.850;21.698;2024-03-25T05:11:46;28.20;;;15.50;;
50309;SDS011;36207;51.850;21.698;2024-03-25T05:14:12;27.80;;;16.40;;
50309;SDS011;36207;51.850;21.698;2024-03-25T05:16:38;25.40;;;15.30;;
50309;SDS011;36207;51.850;21.698;2024-03-25T05:19:04;26.80;;;14.90;;
50309;SDS011;36207;51.850;21.698;2024-03-25T05:21:30;27.00;;;16.30;;
50309;SDS011;36207;51.850;21.698;2024-03-25T05:23:56;28.40;;;16.50;;
50309;SDS011;36207;51.850;21.698;2024-03-25T05:26:23;31.50;;;17.80;;
50309;SDS011;36207;51.850;21.698;2024-03-25T05:28:52;30.30;;;17.40;;
50309;SDS011;36207;51.850;21.698;2024-03-25T05:31:22;31.00;;;18.30;;
50309;SDS011;36207;51.850;21.698;2024-03-25T05:33:48;30.80;;;17.40;;
50309;SDS011;36207;51.850;21.698;2024-03-25T05:36:15;29.40;;;18.00;;
50309;SDS011;36207;51.850;21.698;2024-03-25T05:38:41;30.40;;;17.90;;
50309;SDS011;36207;51.850;21.698;2024-03-25T05:41:08;31.70;;;17.90;;
50309;SDS011;36207;51.850;21.698;2024-03-25T05:43:34;27.00;;;16.60;;
50309;SDS011;36207;51.850;21.698;2024-03-25T05:46:00;30.50;;;17.20;;
50309;SDS011;36207;51.850;21.698;2024-03-25T05:48:26;30.80;;;17.70;;
50309;SDS011;36207;51.850;21.698;2024-03-25T05:51:11;26.60;;;17.10;;
50309;SDS011;36207;51.850;21.698;2024-03-25T05:53:37;30.30;;;16.60;;
50309;SDS011;36207;51.850;21.698;2024-03-25T05:56:03;33.60;;;17.90;;
50309;SDS011;36207;51.850;21.698;2024-03-25T05:58:30;30.00;;;18.50;;
50309;SDS011;36207;51.850;21.698;2024-03-25T06:00:56;31.80;;;17.90;;
50309;SDS011;36207;51.850;21.698;2024-03-25T06:03:22;30.60;;;19.40;;
50309;SDS011;36207;51.850;21.698;2024-03-25T06:05:48;40.90;;;25.80;;
50309;SDS011;36207;51.850;21.698;2024-03-25T06:08:15;29.60;;;18.10;;
50309;SDS011;36207;51.850;21.698;2024-03-25T06:10:53;34.60;;;17.90;;
50309;SDS011;36207;51.850;21.698;2024-03-25T06:13:19;37.20;;;22.90;;
50309;SDS011;36207;51.850;21.698;2024-03-25T06:15:46;29.10;;;17.10;;
50309;SDS011;36207;51.850;21.698;2024-03-25T06:18:12;31.00;;;17.70;;
50309;SDS011;36207;51.850;21.698;2024-03-25T06:20:38;31.30;;;17.90;;
50309;SDS011;36207;51.850;21.698;2024-03-25T06:23:04;34.80;;;18.30;;
50309;SDS011;36207;51.850;21.698;2024-03-25T06:25:30;33.20;;;18.30;;
50309;SDS011;36207;51.850;21.698;2024-03-25T06:27:56;32.70;;;17.90;;
50309;SDS011;36207;51.850;21.698;2024-03-25T06:30:23;31.50;;;17.80;;
50309;SDS011;36207;51.850;21.698;2024-03-25T06:33:07;35.40;;;18.70;;
50309;SDS011;36207;51.850;21.698;2024-03-25T06:35:52;32.90;;;16.70;;
50309;SDS011;36207;51.850;21.698;2024-03-25T06:38:18;26.40;;;16.30;;
50309;SDS011;36207;51.850;21.698;2024-03-25T06:40:47;27.20;;;16.80;;
50309;SDS011;36207;51.850;21.698;2024-03-25T06:43:13;31.60;;;16.50;;
50309;SDS011;36207;51.850;21.698;2024-03-25T06:45:41;28.90;;;16.80;;
50309;SDS011;36207;51.850;21.698;2024-03-25T06:48:07;27.20;;;15.70;;
50309;SDS011;36207;51.850;21.698;2024-03-25T06:50:33;25.30;;;15.20;;
50309;SDS011;36207;51.850;21.698;2024-03-25T06:52:59;29.50;;;16.90;;
50309;SDS011;36207;51.850;21.698;2024-03-25T06:55:25;28.10;;;16.00;;
50309;SDS011;36207;51.850;21.698;2024-03-25T06:57:54;26.10;;;15.50;;
50309;SDS011;36207;51.850;21.698;2024-03-25T07:00:20;27.40;;;15.70;;
50309;SDS011;36207;51.850;21.698;2024-03-25T07:02:48;27.80;;;15.60;;
50309;SDS011;36207;51.850;21.698;2024-03-25T07:05:15;24.80;;;15.30;;
50309;SDS011;36207;51.850;21.698;2024-03-25T07:07:42;26.50;;;15.80;;
50309;SDS011;36207;51.850;21.698;2024-03-25T07:10:07;24.80;;;14.50;;
50309;SDS011;36207;51.850;21.698;2024-03-25T07:12:33;26.20;;;15.30;;
50309;SDS011;36207;51.850;21.698;2024-03-25T07:14:59;23.00;;;14.40;;
50309;SDS011;36207;51.850;21.698;2024-03-25T07:17:26;25.50;;;15.60;;
50309;SDS011;36207;51.850;21.698;2024-03-25T07:19:52;22.40;;;13.80;;
50309;SDS011;36207;51.850;21.698;2024-03-25T07:22:18;22.50;;;13.80;;
50309;SDS011;36207;51.850;21.698;2024-03-25T07:24:44;23.90;;;13.70;;
50309;SDS011;36207;51.850;21.698;2024-03-25T07:27:10;22.10;;;12.90;;
50309;SDS011;36207;51.850;21.698;2024-03-25T07:29:37;20.80;;;12.90;;
50309;SDS011;36207;51.850;21.698;2024-03-25T07:32:03;22.90;;;13.10;;
50309;SDS011;36207;51.850;21.698;2024-03-25T07:34:30;21.10;;;13.50;;
50309;SDS011;36207;51.850;21.698;2024-03-25T07:36:56;21.50;;;12.70;;
50309;SDS011;36207;51.850;21.698;2024-03-25T07:39:22;21.40;;;12.60;;
50309;SDS011;36207;51.850;21.698;2024-03-25T07:41:49;20.20;;;12.70;;
50309;SDS011;36207;51.850;21.698;2024-03-25T07:44:16;21.40;;;12.80;;
50309;SDS011;36207;51.850;21.698;2024-03-25T07:46:42;21.70;;;12.70;;
50309;SDS011;36207;51.850;21.698;2024-03-25T07:49:08;22.60;;;13.20;;
50309;SDS011;36207;51.850;21.698;2024-03-25T07:51:34;18.20;;;11.80;;
50309;SDS011;36207;51.850;21.698;2024-03-25T07:54:01;19.20;;;11.80;;
50309;SDS011;36207;51.850;21.698;2024-03-25T07:56:31;17.80;;;11.70;;
50309;SDS011;36207;51.850;21.698;2024-03-25T07:58:58;19.80;;;11.70;;
50309;SDS011;36207;51.850;21.698;2024-03-25T08:01:25;16.90;;;10.80;;
50309;SDS011;36207;51.850;21.698;2024-03-25T08:03:51;17.30;;;10.80;;
50309;SDS011;36207;51.850;21.698;2024-03-25T08:06:17;20.20;;;11.60;;
50309;SDS011;36207;51.850;21.698;2024-03-25T08:08:42;17.70;;;10.90;;
50309;SDS011;36207;51.850;21.698;2024-03-25T08:11:08;19.40;;;11.00;;
50309;SDS011;36207;51.850;21.698;2024-03-25T08:13:34;16.80;;;10.80;;
50309;SDS011;36207;51.850;21.698;2024-03-25T08:16:00;17.10;;;10.70;;
50309;SDS011;36207;51.850;21.698;2024-03-25T08:18:26;17.50;;;11.10;;
50309;SDS011;36207;51.850;21.698;2024-03-25T08:20:52;18.90;;;10.50;;
50309;SDS011;36207;51.850;21.698;2024-03-25T08:23:18;14.70;;;9.70;;
50309;SDS011;36207;51.850;21.698;2024-03-25T08:25:44;13.50;;;9.10;;
50309;SDS011;36207;51.850;21.698;2024-03-25T08:28:10;15.70;;;9.50;;
50309;SDS011;36207;51.850;21.698;2024-03-25T08:30:36;16.80;;;8.70;;
50309;SDS011;36207;51.850;21.698;2024-03-25T08:33:02;12.80;;;8.30;;
50309;SDS011;36207;51.850;21.698;2024-03-25T08:35:28;11.50;;;7.80;;
50309;SDS011;36207;51.850;21.698;2024-03-25T08:37:54;11.00;;;7.20;;
50309;SDS011;36207;51.850;21.698;2024-03-25T08:40:20;11.50;;;7.60;;
50309;SDS011;36207;51.850;21.698;2024-03-25T08:42:46;10.30;;;7.30;;
50309;SDS011;36207;51.850;21.698;2024-03-25T08:45:11;11.20;;;7.40;;
50309;SDS011;36207;51.850;21.698;2024-03-25T08:47:37;11.90;;;7.30;;
50309;SDS011;36207;51.850;21.698;2024-03-25T08:50:04;12.90;;;7.90;;
50309;SDS011;36207;51.850;21.698;2024-03-25T08:52:30;12.40;;;7.90;;
50309;SDS011;36207;51.850;21.698;2024-03-25T08:54:56;12.40;;;7.40;;
50309;SDS011;36207;51.850;21.698;2024-03-25T08:57:22;11.10;;;6.90;;
50309;SDS011;36207;51.850;21.698;2024-03-25T08:59:48;9.20;;;6.20;;
50309;SDS011;36207;51.850;21.698;2024-03-25T09:02:14;10.30;;;6.50;;
50309;SDS011;36207;51.850;21.698;2024-03-25T09:04:40;8.70;;;5.80;;
50309;SDS011;36207;51.850;21.698;2024-03-25T09:07:05;9.70;;;6.50;;
50309;SDS011;36207;51.850;21.698;2024-03-25T09:09:31;12.10;;;7.20;;
50309;SDS011;36207;51.850;21.698;2024-03-25T09:12:16;12.60;;;7.10;;
50309;SDS011;36207;51.850;21.698;2024-03-25T09:14:42;10.00;;;7.30;;
50309;SDS011;36207;51.850;21.698;2024-03-25T09:17:08;13.60;;;6.80;;
50309;SDS011;36207;51.850;21.698;2024-03-25T09:19:34;10.30;;;7.00;;
50309;SDS011;36207;51.850;21.698;2024-03-25T09:22:00;11.70;;;7.20;;
50309;SDS011;36207;51.850;21.698;2024-03-25T09:24:26;9.70;;;7.10;;
50309;SDS011;36207;51.850;21.698;2024-03-25T09:26:52;11.40;;;7.20;;
50309;SDS011;36207;51.850;21.698;2024-03-25T09:29:19;11.60;;;7.10;;
50309;SDS011;36207;51.850;21.698;2024-03-25T09:31:44;11.10;;;7.00;;
50309;SDS011;36207;51.850;21.698;2024-03-25T09:34:10;11.00;;;7.20;;
50309;SDS011;36207;51.850;21.698;2024-03-25T09:36:36;10.80;;;6.70;;
50309;SDS011;36207;51.850;21.698;2024-03-25T09:39:02;10.80;;;7.30;;
50309;SDS011;36207;51.850;21.698;2024-03-25T09:41:30;10.20;;;7.00;;
50309;SDS011;36207;51.850;21.698;2024-03-25T09:44:00;13.10;;;7.50;;
50309;SDS011;36207;51.850;21.698;2024-03-25T09:46:26;12.80;;;7.50;;
50309;SDS011;36207;51.850;21.698;2024-03-25T09:48:52;9.90;;;6.70;;
50309;SDS011;36207;51.850;21.698;2024-03-25T09:51:19;11.20;;;7.00;;
50309;SDS011;36207;51.850;21.698;2024-03-25T09:53:46;10.60;;;7.50;;
50309;SDS011;36207;51.850;21.698;2024-03-25T09:56:12;11.60;;;7.60;;
50309;SDS011;36207;51.850;21.698;2024-03-25T09:58:39;12.90;;;8.10;;
50309;SDS011;36207;51.850;21.698;2024-03-25T10:01:06;11.00;;;7.70;;
50309;SDS011;36207;51.850;21.698;2024-03-25T10:03:32;11.70;;;7.70;;
50309;SDS011;36207;51.850;21.698;2024-03-25T10:05:58;12.60;;;8.40;;
50309;SDS011;36207;51.850;21.698;2024-03-25T10:08:24;9.50;;;6.40;;
50309;SDS011;36207;51.850;21.698;2024-03-25T10:10:55;13.60;;;7.50;;
50309;SDS011;36207;51.850;21.698;2024-03-25T10:13:22;8.10;;;5.80;;
50309;SDS011;36207;51.850;21.698;2024-03-25T10:15:48;9.90;;;6.00;;
50309;SDS011;36207;51.850;21.698;2024-03-25T10:18:15;10.40;;;6.10;;
50309;SDS011;36207;51.850;21.698;2024-03-25T10:20:47;8.70;;;6.10;;
50309;SDS011;36207;51.850;21.698;2024-03-25T10:25:40;8.30;;;5.30;;
50309;SDS011;36207;51.850;21.698;2024-03-25T10:28:06;8.10;;;5.00;;
50309;SDS011;36207;51.850;21.698;2024-03-25T10:30:34;7.50;;;5.10;;
50309;SDS011;36207;51.850;21.698;2024-03-25T10:33:03;8.60;;;5.30;;
50309;SDS011;36207;51.850;21.698;2024-03-25T10:35:31;8.40;;;5.20;;
50309;SDS011;36207;51.850;21.698;2024-03-25T10:38:02;8.70;;;5.20;;
50309;SDS011;36207;51.850;21.698;2024-03-25T10:40:36;8.60;;;5.30;;
50309;SDS011;36207;51.850;21.698;2024-03-25T10:43:04;9.30;;;5.40;;
50309;SDS011;36207;51.850;21.698;2024-03-25T10:45:34;7.40;;;5.10;;
50309;SDS011;36207;51.850;21.698;2024-03-25T10:48:04;8.50;;;5.10;;
50309;SDS011;36207;51.850;21.698;2024-03-25T10:50:37;8.50;;;5.00;;
50309;SDS011;36207;51.850;21.698;2024-03-25T10:53:04;7.10;;;4.60;;
50309;SDS011;36207;51.850;21.698;2024-03-25T10:55:32;8.10;;;4.50;;
50309;SDS011;36207;51.850;21.698;2024-03-25T10:58:00;7.00;;;4.80;;
50309;SDS011;36207;51.850;21.698;2024-03-25T11:00:26;8.00;;;5.40;;
50309;SDS011;36207;51.850;21.698;2024-03-25T11:02:53;8.50;;;5.40;;
50309;SDS011;36207;51.850;21.698;2024-03-25T11:05:19;7.60;;;5.10;;
50309;SDS011;36207;51.850;21.698;2024-03-25T11:07:46;8.00;;;5.10;;
50309;SDS011;36207;51.850;21.698;2024-03-25T11:10:13;5.80;;;3.60;;
50309;SDS011;36207;51.850;21.698;2024-03-25T11:12:40;5.10;;;3.50;;
50309;SDS011;36207;51.850;21.698;2024-03-25T11:15:07;5.00;;;3.20;;
50309;SDS011;36207;51.850;21.698;2024-03-25T11:17:34;4.00;;;3.40;;
50309;SDS011;36207;51.850;21.698;2024-03-25T11:20:11;6.40;;;3.70;;
50309;SDS011;36207;51.850;21.698;2024-03-25T11:22:49;7.90;;;4.00;;
50309;SDS011;36207;51.850;21.698;2024-03-25T11:25:16;6.30;;;3.90;;
50309;SDS011;36207;51.850;21.698;2024-03-25T11:27:43;8.40;;;4.70;;
50309;SDS011;36207;51.850;21.698;2024-03-25T11:30:10;5.20;;;3.60;;
50309;SDS011;36207;51.850;21.698;2024-03-25T11:35:09;4.90;;;3.20;;
50309;SDS011;36207;51.850;21.698;2024-03-25T11:37:42;6.70;;;4.50;;
50309;SDS011;36207;51.850;21.698;2024-03-25T11:40:09;7.80;;;4.40;;
50309;SDS011;36207;51.850;21.698;2024-03-25T11:42:38;7.30;;;4.80;;
50309;SDS011;36207;51.850;21.698;2024-03-25T11:45:07;8.30;;;4.60;;
50309;SDS011;36207;51.850;21.698;2024-03-25T11:47:41;6.50;;;4.10;;
50309;SDS011;36207;51.850;21.698;2024-03-25T11:50:11;8.00;;;4.30;;
50309;SDS011;36207;51.850;21.698;2024-03-25T11:52:39;6.20;;;4.30;;
50309;SDS011;36207;51.850;21.698;2024-03-25T11:55:05;7.80;;;4.80;;
50309;SDS011;36207;51.850;21.698;2024-03-25T11:57:34;6.80;;;4.30;;
50309;SDS011;36207;51.850;21.698;2024-03-25T12:00:01;7.00;;;3.70;;
50309;SDS011;36207;51.850;21.698;2024-03-25T12:02:31;6.80;;;3.90;;
50309;SDS011;36207;51.850;21.698;2024-03-25T12:04:57;5.90;;;3.60;;
50309;SDS011;36207;51.850;21.698;2024-03-25T12:07:23;5.10;;;3.20;;
50309;SDS011;36207;51.850;21.698;2024-03-25T12:09:49;4.70;;;3.20;;
50309;SDS011;36207;51.850;21.698;2024-03-25T12:12:34;5.50;;;3.30;;
50309;SDS011;36207;51.850;21.698;2024-03-25T12:15:00;5.30;;;3.50;;
50309;SDS011;36207;51.850;21.698;2024-03-25T12:17:28;5.80;;;3.80;;
50309;SDS011;36207;51.850;21.698;2024-03-25T12:19:58;5.00;;;3.40;;
50309;SDS011;36207;51.850;21.698;2024-03-25T12:22:31;6.20;;;3.40;;
50309;SDS011;36207;51.850;21.698;2024-03-25T12:25:01;7.70;;;4.80;;
50309;SDS011;36207;51.850;21.698;2024-03-25T12:27:29;6.90;;;4.40;;
50309;SDS011;36207;51.850;21.698;2024-03-25T12:32:37;9.00;;;4.40;;
50309;SDS011;36207;51.850;21.698;2024-03-25T12:35:10;6.10;;;4.20;;
50309;SDS011;36207;51.850;21.698;2024-03-25T12:37:40;7.30;;;4.70;;
50309;SDS011;36207;51.850;21.698;2024-03-25T12:40:07;7.20;;;4.00;;
50309;SDS011;36207;51.850;21.698;2024-03-25T12:42:35;7.10;;;4.50;;
50309;SDS011;36207;51.850;21.698;2024-03-25T12:45:01;6.60;;;3.80;;
50309;SDS011;36207;51.850;21.698;2024-03-25T12:47:29;7.80;;;3.70;;
50309;SDS011;36207;51.850;21.698;2024-03-25T12:49:56;6.40;;;3.50;;
50309;SDS011;36207;51.850;21.698;2024-03-25T12:52:22;6.30;;;3.60;;
50309;SDS011;36207;51.850;21.698;2024-03-25T12:54:48;4.80;;;3.20;;
50309;SDS011;36207;51.850;21.698;2024-03-25T12:57:15;7.30;;;3.70;;
50309;SDS011;36207;51.850;21.698;2024-03-25T12:59:41;5.50;;;3.20;;
50309;SDS011;36207;51.850;21.698;2024-03-25T13:02:08;4.80;;;3.00;;
50309;SDS011;36207;51.850;21.698;2024-03-25T13:04:37;5.80;;;3.60;;
50309;SDS011;36207;51.850;21.698;2024-03-25T13:07:03;4.30;;;3.10;;
50309;SDS011;36207;51.850;21.698;2024-03-25T13:09:30;6.80;;;3.80;;
50309;SDS011;36207;51.850;21.698;2024-03-25T13:11:56;6.10;;;3.60;;
50309;SDS011;36207;51.850;21.698;2024-03-25T13:14:23;6.80;;;3.70;;
50309;SDS011;36207;51.850;21.698;2024-03-25T13:16:49;7.00;;;4.00;;
50309;SDS011;36207;51.850;21.698;2024-03-25T13:19:15;6.00;;;3.90;;
50309;SDS011;36207;51.850;21.698;2024-03-25T13:21:41;9.60;;;3.90;;
50309;SDS011;36207;51.850;21.698;2024-03-25T13:24:07;7.40;;;3.90;;
50309;SDS011;36207;51.850;21.698;2024-03-25T13:26:35;8.10;;;4.60;;
50309;SDS011;36207;51.850;21.698;2024-03-25T13:29:01;7.80;;;3.40;;
50309;SDS011;36207;51.850;21.698;2024-03-25T13:31:27;6.30;;;3.50;;
50309;SDS011;36207;51.850;21.698;2024-03-25T13:33:53;6.10;;;3.80;;
50309;SDS011;36207;51.850;21.698;2024-03-25T13:36:19;5.80;;;3.70;;
50309;SDS011;36207;51.850;21.698;2024-03-25T13:38:45;7.10;;;4.00;;
50309;SDS011;36207;51.850;21.698;2024-03-25T13:41:11;6.00;;;3.60;;
50309;SDS011;36207;51.850;21.698;2024-03-25T13:43:43;5.40;;;3.20;;
50309;SDS011;36207;51.850;21.698;2024-03-25T13:46:09;6.40;;;3.50;;
50309;SDS011;36207;51.850;21.698;2024-03-25T13:48:37;4.70;;;3.10;;
50309;SDS011;36207;51.850;21.698;2024-03-25T13:51:03;3.70;;;2.90;;
50309;SDS011;36207;51.850;21.698;2024-03-25T13:53:30;4.40;;;3.40;;
50309;SDS011;36207;51.850;21.698;2024-03-25T13:55:55;3.90;;;3.10;;
50309;SDS011;36207;51.850;21.698;2024-03-25T13:58:21;4.90;;;3.40;;
50309;SDS011;36207;51.850;21.698;2024-03-25T14:00:47;5.70;;;3.80;;
50309;SDS011;36207;51.850;21.698;2024-03-25T14:03:14;5.10;;;3.60;;
50309;SDS011;36207;51.850;21.698;2024-03-25T14:05:41;5.40;;;3.50;;
50309;SDS011;36207;51.850;21.698;2024-03-25T14:08:09;7.60;;;3.70;;
50309;SDS011;36207;51.850;21.698;2024-03-25T14:10:36;6.90;;;4.30;;
50309;SDS011;36207;51.850;21.698;2024-03-25T14:13:02;6.40;;;4.40;;
50309;SDS011;36207;51.850;21.698;2024-03-25T14:15:29;6.50;;;3.90;;
50309;SDS011;36207;51.850;21.698;2024-03-25T14:17:55;7.30;;;4.10;;
50309;SDS011;36207;51.850;21.698;2024-03-25T14:20:21;7.80;;;4.50;;
50309;SDS011;36207;51.850;21.698;2024-03-25T14:22:47;5.90;;;3.80;;
50309;SDS011;36207;51.850;21.698;2024-03-25T14:25:13;6.50;;;4.30;;